sensor_id;sensor_type;location;lat;lon;timestamp;temperature;humidity
64620;DHT22;51029;51.058;13.826;2023-07-31T00:00:34;14.90;99.90
64620;DHT22;51029;51.058;13.826;2023-07-31T00:02:59;14.90;99.90
64620;DHT22;51029;51.058;13.826;2023-07-31T00:05:25;14.90;99.90
64620;DHT22;51029;51.058;13.826;2023-07-31T00:07:50;14.90;99.90
64620;DHT22;51029;51.058;13.826;2023-07-31T00:10:16;14.90;99.90
64620;DHT22;51029;51.058;13.826;2023-07-31T00:12:43;14.90;99.90
64620;DHT22;51029;51.058;13.826;2023-07-31T00:15:09;14.80;99.90
64620;DHT22;51029;51.058;13.826;2023-07-31T00:17:35;14.80;99.90
64620;DHT22;51029;51.058;13.826;2023-07-31T00:20:01;14.80;99.90
64620;DHT22;51029;51.058;13.826;2023-07-31T00:22:27;14.70;99.90
64620;DHT22;51029;51.058;13.826;2023-07-31T00:24:53;14.70;99.90
64620;DHT22;51029;51.058;13.826;2023-07-31T00:27:18;14.70;99.90
64620;DHT22;51029;51.058;13.826;2023-07-31T00:29:44;14.60;99.90
64620;DHT22;51029;51.058;13.826;2023-07-31T00:32:09;14.60;99.90
64620;DHT22;51029;51.058;13.826;2023-07-31T00:34:35;14.60;99.90
64620;DHT22;51029;51.058;13.826;2023-07-31T00:37:01;14.60;99.90
64620;DHT22;51029;51.058;13.826;2023-07-31T00:39:26;14.60;99.90
64620;DHT22;51029;51.058;13.826;2023-07-31T00:41:52;14.70;99.90
64620;DHT22;51029;51.058;13.826;2023-07-31T00:44:17;14.70;99.90
64620;DHT22;51029;51.058;13.826;2023-07-31T00:46:43;14.80;99.90
64620;DHT22;51029;51.058;13.826;2023-07-31T00:49:09;14.90;99.90
64620;DHT22;51029;51.058;13.826;2023-07-31T00:51:35;15.10;99.90
64620;DHT22;51029;51.058;13.826;2023-07-31T00:54:01;15.10;99.90
64620;DHT22;51029;51.058;13.826;2023-07-31T00:56:28;15.10;99.90
64620;DHT22;51029;51.058;13.826;2023-07-31T00:58:55;15.10;99.90
64620;DHT22;51029;51.058;13.826;2023-07-31T01:01:20;15.10;99.90
64620;DHT22;51029;51.058;13.826;2023-07-31T01:03:47;15.10;99.90
64620;DHT22;51029;51.058;13.826;2023-07-31T01:07:02;15.20;99.90
64620;DHT22;51029;51.058;13.826;2023-07-31T01:09:36;15.10;99.90
64620;DHT22;51029;51.058;13.826;2023-07-31T01:12:07;15.10;99.90
64620;DHT22;51029;51.058;13.826;2023-07-31T01:14:33;15.10;99.90
64620;DHT22;51029;51.058;13.826;2023-07-31T01:16:58;15.10;99.90
64620;DHT22;51029;51.058;13.826;2023-07-31T01:19:25;15.00;99.90
64620;DHT22;51029;51.058;13.826;2023-07-31T01:27:53;15.00;99.90
64620;DHT22;51029;51.058;13.826;2023-07-31T01:30:25;15.00;99.90
64620;DHT22;51029;51.058;13.826;2023-07-31T01:32:51;15.00;99.90
64620;DHT22;51029;51.058;13.826;2023-07-31T01:35:18;15.00;99.90
64620;DHT22;51029;51.058;13.826;2023-07-31T01:37:44;15.00;99.90
64620;DHT22;51029;51.058;13.826;2023-07-31T01:40:10;15.00;99.90
64620;DHT22;51029;51.058;13.826;2023-07-31T01:42:36;15.00;99.90
64620;DHT22;51029;51.058;13.826;2023-07-31T01:45:01;15.00;99.90
64620;DHT22;51029;51.058;13.826;2023-07-31T01:47:27;15.00;99.90
64620;DHT22;51029;51.058;13.826;2023-07-31T01:49:52;15.00;99.90
64620;DHT22;51029;51.058;13.826;2023-07-31T01:52:18;15.00;99.90
64620;DHT22;51029;51.058;13.826;2023-07-31T01:54:43;15.00;99.90
64620;DHT22;51029;51.058;13.826;2023-07-31T01:57:09;15.00;99.90
64620;DHT22;51029;51.058;13.826;2023-07-31T01:59:34;15.00;99.90
64620;DHT22;51029;51.058;13.826;2023-07-31T02:02:00;15.00;99.90
64620;DHT22;51029;51.058;13.826;2023-07-31T02:04:26;15.10;99.90
64620;DHT22;51029;51.058;13.826;2023-07-31T02:06:52;15.10;99.90
64620;DHT22;51029;51.058;13.826;2023-07-31T02:09:18;15.10;99.90
64620;DHT22;51029;51.058;13.826;2023-07-31T02:11:43;15.20;99.90
64620;DHT22;51029;51.058;13.826;2023-07-31T02:14:09;15.30;99.90
64620;DHT22;51029;51.058;13.826;2023-07-31T02:16:34;15.40;99.90
64620;DHT22;51029;51.058;13.826;2023-07-31T02:19:00;15.40;99.90
64620;DHT22;51029;51.058;13.826;2023-07-31T02:21:25;15.50;99.90
64620;DHT22;51029;51.058;13.826;2023-07-31T02:23:51;15.60;99.90
64620;DHT22;51029;51.058;13.826;2023-07-31T02:26:16;15.60;99.90
64620;DHT22;51029;51.058;13.826;2023-07-31T02:28:42;15.60;99.90
64620;DHT22;51029;51.058;13.826;2023-07-31T02:31:08;15.70;99.90
64620;DHT22;51029;51.058;13.826;2023-07-31T02:33:34;15.70;99.90
64620;DHT22;51029;51.058;13.826;2023-07-31T02:36:00;15.70;99.90
64620;DHT22;51029;51.058;13.826;2023-07-31T02:38:25;15.80;99.90
64620;DHT22;51029;51.058;13.826;2023-07-31T02:40:51;15.90;99.90
64620;DHT22;51029;51.058;13.826;2023-07-31T02:43:16;15.90;99.90
64620;DHT22;51029;51.058;13.826;2023-07-31T02:45:42;15.90;99.90
64620;DHT22;51029;51.058;13.826;2023-07-31T02:48:07;15.90;99.90
64620;DHT22;51029;51.058;13.826;2023-07-31T02:50:33;15.90;99.90
64620;DHT22;51029;51.058;13.826;2023-07-31T02:52:58;15.90;99.90
64620;DHT22;51029;51.058;13.826;2023-07-31T02:55:24;15.90;99.90
64620;DHT22;51029;51.058;13.826;2023-07-31T02:57:49;15.90;99.90
64620;DHT22;51029;51.058;13.826;2023-07-31T03:00:17;15.90;99.90
64620;DHT22;51029;51.058;13.826;2023-07-31T03:02:43;15.90;99.90
64620;DHT22;51029;51.058;13.826;2023-07-31T03:05:08;16.00;99.90
64620;DHT22;51029;51.058;13.826;2023-07-31T03:07:34;16.00;99.90
64620;DHT22;51029;51.058;13.826;2023-07-31T03:09:59;16.00;99.90
64620;DHT22;51029;51.058;13.826;2023-07-31T03:12:25;16.10;99.90
64620;DHT22;51029;51.058;13.826;2023-07-31T03:14:50;16.10;99.90
64620;DHT22;51029;51.058;13.826;2023-07-31T03:17:16;16.20;99.90
64620;DHT22;51029;51.058;13.826;2023-07-31T03:19:41;16.20;99.90
64620;DHT22;51029;51.058;13.826;2023-07-31T03:22:07;16.20;99.90
64620;DHT22;51029;51.058;13.826;2023-07-31T03:24:32;16.20;99.90
64620;DHT22;51029;51.058;13.826;2023-07-31T03:26:58;16.30;99.90
64620;DHT22;51029;51.058;13.826;2023-07-31T03:29:23;16.40;99.90
64620;DHT22;51029;51.058;13.826;2023-07-31T03:31:49;16.50;99.90
64620;DHT22;51029;51.058;13.826;2023-07-31T03:34:14;16.50;99.90
64620;DHT22;51029;51.058;13.826;2023-07-31T03:36:40;16.50;99.90
64620;DHT22;51029;51.058;13.826;2023-07-31T03:39:06;16.60;99.90
64620;DHT22;51029;51.058;13.826;2023-07-31T03:41:31;16.60;99.90
64620;DHT22;51029;51.058;13.826;2023-07-31T03:43:57;16.60;99.90
64620;DHT22;51029;51.058;13.826;2023-07-31T03:46:23;16.70;99.90
64620;DHT22;51029;51.058;13.826;2023-07-31T03:48:49;16.70;99.90
64620;DHT22;51029;51.058;13.826;2023-07-31T03:51:15;16.70;99.90
64620;DHT22;51029;51.058;13.826;2023-07-31T03:53:40;16.80;99.90
64620;DHT22;51029;51.058;13.826;2023-07-31T03:56:06;16.80;99.90
64620;DHT22;51029;51.058;13.826;2023-07-31T03:58:31;16.80;99.90
64620;DHT22;51029;51.058;13.826;2023-07-31T04:00:57;16.80;99.90
64620;DHT22;51029;51.058;13.826;2023-07-31T04:03:22;16.80;99.90
64620;DHT22;51029;51.058;13.826;2023-07-31T04:05:48;16.80;99.90
64620;DHT22;51029;51.058;13.826;2023-07-31T04:08:14;16.80;99.90
64620;DHT22;51029;51.058;13.826;2023-07-31T04:10:39;16.70;99.90
64620;DHT22;51029;51.058;13.826;2023-07-31T04:13:05;16.80;99.90
64620;DHT22;51029;51.058;13.826;2023-07-31T04:15:30;16.80;99.90
64620;DHT22;51029;51.058;13.826;2023-07-31T04:17:56;16.70;99.90
64620;DHT22;51029;51.058;13.826;2023-07-31T04:20:21;16.70;99.90
64620;DHT22;51029;51.058;13.826;2023-07-31T04:22:48;16.70;99.90
64620;DHT22;51029;51.058;13.826;2023-07-31T04:25:13;16.60;99.90
64620;DHT22;51029;51.058;13.826;2023-07-31T04:27:39;16.60;99.90
64620;DHT22;51029;51.058;13.826;2023-07-31T04:30:06;16.60;99.90
64620;DHT22;51029;51.058;13.826;2023-07-31T04:32:31;16.50;99.90
64620;DHT22;51029;51.058;13.826;2023-07-31T04:34:57;16.50;99.90
64620;DHT22;51029;51.058;13.826;2023-07-31T04:37:22;16.50;99.90
64620;DHT22;51029;51.058;13.826;2023-07-31T04:39:48;16.40;99.90
64620;DHT22;51029;51.058;13.826;2023-07-31T04:42:13;16.40;99.90
64620;DHT22;51029;51.058;13.826;2023-07-31T04:44:39;16.40;99.90
64620;DHT22;51029;51.058;13.826;2023-07-31T04:47:05;16.40;99.90
64620;DHT22;51029;51.058;13.826;2023-07-31T04:49:31;16.50;99.90
64620;DHT22;51029;51.058;13.826;2023-07-31T04:51:57;16.50;99.90
64620;DHT22;51029;51.058;13.826;2023-07-31T04:54:23;16.50;99.90
64620;DHT22;51029;51.058;13.826;2023-07-31T04:56:48;16.50;99.90
64620;DHT22;51029;51.058;13.826;2023-07-31T04:59:14;16.50;99.90
64620;DHT22;51029;51.058;13.826;2023-07-31T05:01:39;16.50;99.90
64620;DHT22;51029;51.058;13.826;2023-07-31T05:04:05;16.50;99.90
64620;DHT22;51029;51.058;13.826;2023-07-31T05:06:30;16.50;99.90
64620;DHT22;51029;51.058;13.826;2023-07-31T05:08:59;16.60;99.90
64620;DHT22;51029;51.058;13.826;2023-07-31T05:11:25;16.50;99.90
64620;DHT22;51029;51.058;13.826;2023-07-31T05:13:50;16.50;99.90
64620;DHT22;51029;51.058;13.826;2023-07-31T05:16:16;16.60;99.90
64620;DHT22;51029;51.058;13.826;2023-07-31T05:18:41;16.60;99.90
64620;DHT22;51029;51.058;13.826;2023-07-31T05:21:07;16.60;99.90
64620;DHT22;51029;51.058;13.826;2023-07-31T05:23:32;16.60;99.90
64620;DHT22;51029;51.058;13.826;2023-07-31T05:26:05;16.60;99.90
64620;DHT22;51029;51.058;13.826;2023-07-31T05:28:31;16.60;99.90
64620;DHT22;51029;51.058;13.826;2023-07-31T05:31:00;16.60;99.90
64620;DHT22;51029;51.058;13.826;2023-07-31T05:33:26;16.60;99.90
64620;DHT22;51029;51.058;13.826;2023-07-31T05:35:52;16.50;99.90
64620;DHT22;51029;51.058;13.826;2023-07-31T05:38:17;16.70;99.90
64620;DHT22;51029;51.058;13.826;2023-07-31T05:40:43;16.60;99.90
64620;DHT22;51029;51.058;13.826;2023-07-31T05:43:09;16.60;99.90
64620;DHT22;51029;51.058;13.826;2023-07-31T05:45:35;16.60;99.90
64620;DHT22;51029;51.058;13.826;2023-07-31T05:48:01;16.60;99.90
64620;DHT22;51029;51.058;13.826;2023-07-31T05:50:26;16.70;99.90
64620;DHT22;51029;51.058;13.826;2023-07-31T05:52:52;16.70;99.90
64620;DHT22;51029;51.058;13.826;2023-07-31T05:55:17;16.70;99.90
64620;DHT22;51029;51.058;13.826;2023-07-31T05:57:43;16.80;99.90
64620;DHT22;51029;51.058;13.826;2023-07-31T06:00:11;16.80;99.90
64620;DHT22;51029;51.058;13.826;2023-07-31T06:02:37;16.80;99.90
64620;DHT22;51029;51.058;13.826;2023-07-31T06:05:04;16.90;99.90
64620;DHT22;51029;51.058;13.826;2023-07-31T06:07:31;16.90;99.90
64620;DHT22;51029;51.058;13.826;2023-07-31T06:09:57;16.90;99.90
64620;DHT22;51029;51.058;13.826;2023-07-31T06:12:27;16.90;99.90
64620;DHT22;51029;51.058;13.826;2023-07-31T06:14:52;16.90;99.90
64620;DHT22;51029;51.058;13.826;2023-07-31T06:17:18;16.90;99.90
64620;DHT22;51029;51.058;13.826;2023-07-31T06:19:44;17.00;99.90
64620;DHT22;51029;51.058;13.826;2023-07-31T06:22:09;17.00;99.90
64620;DHT22;51029;51.058;13.826;2023-07-31T06:24:35;17.00;99.90
64620;DHT22;51029;51.058;13.826;2023-07-31T06:27:00;17.10;99.90
64620;DHT22;51029;51.058;13.826;2023-07-31T06:29:28;17.10;99.90
64620;DHT22;51029;51.058;13.826;2023-07-31T06:31:53;17.20;99.90
64620;DHT22;51029;51.058;13.826;2023-07-31T06:34:19;17.20;99.90
64620;DHT22;51029;51.058;13.826;2023-07-31T06:36:44;17.30;99.90
64620;DHT22;51029;51.058;13.826;2023-07-31T06:39:10;17.30;99.90
64620;DHT22;51029;51.058;13.826;2023-07-31T06:41:36;17.30;99.90
64620;DHT22;51029;51.058;13.826;2023-07-31T06:44:01;17.40;99.90
64620;DHT22;51029;51.058;13.826;2023-07-31T06:46:27;17.40;99.90
64620;DHT22;51029;51.058;13.826;2023-07-31T06:48:52;17.40;99.90
64620;DHT22;51029;51.058;13.826;2023-07-31T06:51:18;17.50;99.90
64620;DHT22;51029;51.058;13.826;2023-07-31T06:53:43;17.50;99.90
64620;DHT22;51029;51.058;13.826;2023-07-31T06:56:10;17.50;99.90
64620;DHT22;51029;51.058;13.826;2023-07-31T06:58:36;17.50;99.90
64620;DHT22;51029;51.058;13.826;2023-07-31T07:01:01;17.60;99.90
64620;DHT22;51029;51.058;13.826;2023-07-31T07:03:27;17.70;99.90
64620;DHT22;51029;51.058;13.826;2023-07-31T07:05:52;17.80;99.90
64620;DHT22;51029;51.058;13.826;2023-07-31T07:08:18;17.90;99.90
64620;DHT22;51029;51.058;13.826;2023-07-31T07:10:44;18.10;99.90
64620;DHT22;51029;51.058;13.826;2023-07-31T07:13:09;18.10;99.90
64620;DHT22;51029;51.058;13.826;2023-07-31T07:15:35;18.20;99.90
64620;DHT22;51029;51.058;13.826;2023-07-31T07:18:00;18.30;99.90
64620;DHT22;51029;51.058;13.826;2023-07-31T07:20:26;18.40;99.90
64620;DHT22;51029;51.058;13.826;2023-07-31T07:22:51;18.50;99.90
64620;DHT22;51029;51.058;13.826;2023-07-31T07:25:17;18.50;99.90
64620;DHT22;51029;51.058;13.826;2023-07-31T07:27:43;18.60;99.90
64620;DHT22;51029;51.058;13.826;2023-07-31T07:30:09;18.70;99.90
64620;DHT22;51029;51.058;13.826;2023-07-31T07:32:35;18.80;99.90
64620;DHT22;51029;51.058;13.826;2023-07-31T07:35:00;18.90;99.90
64620;DHT22;51029;51.058;13.826;2023-07-31T07:37:26;19.10;99.90
64620;DHT22;51029;51.058;13.826;2023-07-31T07:39:51;19.20;99.90
64620;DHT22;51029;51.058;13.826;2023-07-31T07:42:17;19.10;99.90
64620;DHT22;51029;51.058;13.826;2023-07-31T07:44:43;19.10;99.90
64620;DHT22;51029;51.058;13.826;2023-07-31T07:47:08;19.20;99.90
64620;DHT22;51029;51.058;13.826;2023-07-31T07:49:35;19.20;99.90
64620;DHT22;51029;51.058;13.826;2023-07-31T07:52:01;19.20;99.90
64620;DHT22;51029;51.058;13.826;2023-07-31T07:54:26;19.10;99.90
64620;DHT22;51029;51.058;13.826;2023-07-31T07:56:52;19.10;99.90
64620;DHT22;51029;51.058;13.826;2023-07-31T07:59:18;19.00;99.90
64620;DHT22;51029;51.058;13.826;2023-07-31T08:01:43;19.00;99.90
64620;DHT22;51029;51.058;13.826;2023-07-31T08:04:09;19.00;99.90
64620;DHT22;51029;51.058;13.826;2023-07-31T08:06:34;19.00;99.90
64620;DHT22;51029;51.058;13.826;2023-07-31T08:09:00;19.00;99.90
64620;DHT22;51029;51.058;13.826;2023-07-31T08:11:30;19.20;99.90
64620;DHT22;51029;51.058;13.826;2023-07-31T08:13:56;19.20;99.90
64620;DHT22;51029;51.058;13.826;2023-07-31T08:16:21;19.30;99.90
64620;DHT22;51029;51.058;13.826;2023-07-31T08:18:47;19.50;99.90
64620;DHT22;51029;51.058;13.826;2023-07-31T08:21:14;19.90;99.90
64620;DHT22;51029;51.058;13.826;2023-07-31T08:23:40;20.10;99.90
64620;DHT22;51029;51.058;13.826;2023-07-31T08:26:06;20.40;99.90
64620;DHT22;51029;51.058;13.826;2023-07-31T08:28:31;20.40;99.90
64620;DHT22;51029;51.058;13.826;2023-07-31T08:30:57;20.40;99.90
64620;DHT22;51029;51.058;13.826;2023-07-31T08:33:22;20.30;99.90
64620;DHT22;51029;51.058;13.826;2023-07-31T08:35:48;20.20;99.90
64620;DHT22;51029;51.058;13.826;2023-07-31T08:38:14;20.30;99.90
64620;DHT22;51029;51.058;13.826;2023-07-31T08:40:39;20.40;99.90
64620;DHT22;51029;51.058;13.826;2023-07-31T08:43:05;20.20;99.90
64620;DHT22;51029;51.058;13.826;2023-07-31T08:45:32;20.10;99.90
64620;DHT22;51029;51.058;13.826;2023-07-31T08:47:58;20.00;99.90
64620;DHT22;51029;51.058;13.826;2023-07-31T08:50:24;20.00;99.90
64620;DHT22;51029;51.058;13.826;2023-07-31T08:52:51;19.90;99.90
64620;DHT22;51029;51.058;13.826;2023-07-31T08:55:17;19.90;99.90
64620;DHT22;51029;51.058;13.826;2023-07-31T08:57:43;19.90;99.90
64620;DHT22;51029;51.058;13.826;2023-07-31T09:00:10;19.80;99.90
64620;DHT22;51029;51.058;13.826;2023-07-31T09:05:11;19.80;99.90
64620;DHT22;51029;51.058;13.826;2023-07-31T09:07:37;19.70;99.90
64620;DHT22;51029;51.058;13.826;2023-07-31T09:10:04;19.70;99.90
64620;DHT22;51029;51.058;13.826;2023-07-31T09:12:30;19.70;99.90
64620;DHT22;51029;51.058;13.826;2023-07-31T09:14:57;19.70;99.90
64620;DHT22;51029;51.058;13.826;2023-07-31T09:17:30;19.70;99.90
64620;DHT22;51029;51.058;13.826;2023-07-31T09:19:56;19.70;99.90
64620;DHT22;51029;51.058;13.826;2023-07-31T09:22:32;19.70;99.90
64620;DHT22;51029;51.058;13.826;2023-07-31T09:25:25;19.70;99.90
64620;DHT22;51029;51.058;13.826;2023-07-31T09:28:00;19.70;99.90
64620;DHT22;51029;51.058;13.826;2023-07-31T09:30:26;19.70;99.90
64620;DHT22;51029;51.058;13.826;2023-07-31T09:33:03;19.70;99.90
64620;DHT22;51029;51.058;13.826;2023-07-31T09:35:32;19.70;99.90
64620;DHT22;51029;51.058;13.826;2023-07-31T09:38:04;19.80;99.90
64620;DHT22;51029;51.058;13.826;2023-07-31T09:40:32;19.90;99.90
64620;DHT22;51029;51.058;13.826;2023-07-31T09:42:59;19.90;99.90
64620;DHT22;51029;51.058;13.826;2023-07-31T09:45:26;19.90;99.90
64620;DHT22;51029;51.058;13.826;2023-07-31T09:47:52;19.90;99.90
64620;DHT22;51029;51.058;13.826;2023-07-31T09:50:19;19.90;99.90
64620;DHT22;51029;51.058;13.826;2023-07-31T09:52:45;19.90;99.90
64620;DHT22;51029;51.058;13.826;2023-07-31T09:55:11;19.90;99.90
64620;DHT22;51029;51.058;13.826;2023-07-31T09:57:41;19.90;99.90
64620;DHT22;51029;51.058;13.826;2023-07-31T10:00:08;19.90;99.90
64620;DHT22;51029;51.058;13.826;2023-07-31T10:02:38;20.00;99.90
64620;DHT22;51029;51.058;13.826;2023-07-31T10:05:05;20.10;99.90
64620;DHT22;51029;51.058;13.826;2023-07-31T10:07:33;20.20;99.90
64620;DHT22;51029;51.058;13.826;2023-07-31T10:10:00;20.20;99.90
64620;DHT22;51029;51.058;13.826;2023-07-31T10:12:27;20.20;99.90
64620;DHT22;51029;51.058;13.826;2023-07-31T10:14:56;20.20;99.90
64620;DHT22;51029;51.058;13.826;2023-07-31T10:17:22;20.30;99.90
64620;DHT22;51029;51.058;13.826;2023-07-31T10:19:49;20.40;99.90
64620;DHT22;51029;51.058;13.826;2023-07-31T10:22:15;20.40;99.90
64620;DHT22;51029;51.058;13.826;2023-07-31T10:24:42;20.40;99.90
64620;DHT22;51029;51.058;13.826;2023-07-31T10:27:08;20.40;99.90
64620;DHT22;51029;51.058;13.826;2023-07-31T10:29:36;20.40;99.90
64620;DHT22;51029;51.058;13.826;2023-07-31T10:32:03;20.40;99.90
64620;DHT22;51029;51.058;13.826;2023-07-31T10:34:33;20.50;99.90
64620;DHT22;51029;51.058;13.826;2023-07-31T10:37:28;20.70;99.90
64620;DHT22;51029;51.058;13.826;2023-07-31T10:40:04;20.80;99.90
64620;DHT22;51029;51.058;13.826;2023-07-31T10:42:35;20.80;99.90
64620;DHT22;51029;51.058;13.826;2023-07-31T10:45:04;20.80;99.90
64620;DHT22;51029;51.058;13.826;2023-07-31T10:47:30;20.90;99.90
64620;DHT22;51029;51.058;13.826;2023-07-31T10:52:37;21.20;99.90
64620;DHT22;51029;51.058;13.826;2023-07-31T10:55:16;21.30;99.90
64620;DHT22;51029;51.058;13.826;2023-07-31T10:57:47;21.50;99.90
64620;DHT22;51029;51.058;13.826;2023-07-31T11:00:26;21.40;99.90
64620;DHT22;51029;51.058;13.826;2023-07-31T11:03:10;21.40;99.90
64620;DHT22;51029;51.058;13.826;2023-07-31T11:05:47;21.40;99.90
64620;DHT22;51029;51.058;13.826;2023-07-31T11:08:22;21.30;99.90
64620;DHT22;51029;51.058;13.826;2023-07-31T11:10:51;21.30;99.90
64620;DHT22;51029;51.058;13.826;2023-07-31T11:13:17;21.40;99.90
64620;DHT22;51029;51.058;13.826;2023-07-31T11:15:42;21.50;99.90
64620;DHT22;51029;51.058;13.826;2023-07-31T11:18:08;21.70;99.90
64620;DHT22;51029;51.058;13.826;2023-07-31T11:20:37;21.80;99.90
64620;DHT22;51029;51.058;13.826;2023-07-31T11:23:07;21.80;99.90
64620;DHT22;51029;51.058;13.826;2023-07-31T11:25:34;21.70;99.90
64620;DHT22;51029;51.058;13.826;2023-07-31T11:28:05;21.70;99.90
64620;DHT22;51029;51.058;13.826;2023-07-31T11:30:30;21.60;99.90
64620;DHT22;51029;51.058;13.826;2023-07-31T11:32:56;21.50;99.90
64620;DHT22;51029;51.058;13.826;2023-07-31T11:35:22;21.50;99.90
64620;DHT22;51029;51.058;13.826;2023-07-31T11:37:47;21.60;99.90
64620;DHT22;51029;51.058;13.826;2023-07-31T11:40:14;21.60;99.90
64620;DHT22;51029;51.058;13.826;2023-07-31T11:42:40;21.60;99.90
64620;DHT22;51029;51.058;13.826;2023-07-31T11:45:07;21.70;99.90
64620;DHT22;51029;51.058;13.826;2023-07-31T11:47:34;22.00;99.90
64620;DHT22;51029;51.058;13.826;2023-07-31T11:50:01;22.20;99.90
64620;DHT22;51029;51.058;13.826;2023-07-31T11:52:29;22.50;99.90
64620;DHT22;51029;51.058;13.826;2023-07-31T11:54:56;22.90;99.90
64620;DHT22;51029;51.058;13.826;2023-07-31T11:57:22;23.10;99.90
64620;DHT22;51029;51.058;13.826;2023-07-31T11:59:49;23.20;99.90
64620;DHT22;51029;51.058;13.826;2023-07-31T12:02:15;23.20;99.90
64620;DHT22;51029;51.058;13.826;2023-07-31T12:04:42;23.20;99.90
64620;DHT22;51029;51.058;13.826;2023-07-31T12:07:07;23.20;99.90
64620;DHT22;51029;51.058;13.826;2023-07-31T12:09:33;23.10;99.90
64620;DHT22;51029;51.058;13.826;2023-07-31T12:11:58;23.30;99.90
64620;DHT22;51029;51.058;13.826;2023-07-31T12:14:27;23.70;99.90
64620;DHT22;51029;51.058;13.826;2023-07-31T12:16:57;24.50;99.90
64620;DHT22;51029;51.058;13.826;2023-07-31T12:19:25;25.70;99.90
64620;DHT22;51029;51.058;13.826;2023-07-31T12:21:53;26.50;99.90
64620;DHT22;51029;51.058;13.826;2023-07-31T12:24:19;25.70;99.90
64620;DHT22;51029;51.058;13.826;2023-07-31T12:26:46;25.10;99.90
64620;DHT22;51029;51.058;13.826;2023-07-31T12:29:12;25.20;99.90
64620;DHT22;51029;51.058;13.826;2023-07-31T12:31:41;25.10;99.90
64620;DHT22;51029;51.058;13.826;2023-07-31T12:34:16;24.70;99.90
64620;DHT22;51029;51.058;13.826;2023-07-31T12:36:42;24.40;99.90
64620;DHT22;51029;51.058;13.826;2023-07-31T12:39:08;24.00;99.90
64620;DHT22;51029;51.058;13.826;2023-07-31T12:41:34;24.30;99.90
64620;DHT22;51029;51.058;13.826;2023-07-31T12:43:59;24.50;99.90
64620;DHT22;51029;51.058;13.826;2023-07-31T12:46:25;24.60;99.90
64620;DHT22;51029;51.058;13.826;2023-07-31T12:48:50;24.50;99.90
64620;DHT22;51029;51.058;13.826;2023-07-31T12:51:16;24.30;99.90
64620;DHT22;51029;51.058;13.826;2023-07-31T12:53:42;24.50;99.90
64620;DHT22;51029;51.058;13.826;2023-07-31T12:56:07;24.30;99.90
64620;DHT22;51029;51.058;13.826;2023-07-31T12:58:33;24.30;99.90
64620;DHT22;51029;51.058;13.826;2023-07-31T13:00:58;24.20;99.90
64620;DHT22;51029;51.058;13.826;2023-07-31T13:03:24;24.30;99.90
64620;DHT22;51029;51.058;13.826;2023-07-31T13:05:50;24.20;99.90
64620;DHT22;51029;51.058;13.826;2023-07-31T13:08:15;24.20;99.90
64620;DHT22;51029;51.058;13.826;2023-07-31T13:10:42;24.80;99.90
64620;DHT22;51029;51.058;13.826;2023-07-31T13:13:09;24.90;99.90
64620;DHT22;51029;51.058;13.826;2023-07-31T13:15:35;24.80;99.90
64620;DHT22;51029;51.058;13.826;2023-07-31T13:18:00;24.90;99.90
64620;DHT22;51029;51.058;13.826;2023-07-31T13:20:26;24.90;99.90
64620;DHT22;51029;51.058;13.826;2023-07-31T13:22:51;24.40;99.90
64620;DHT22;51029;51.058;13.826;2023-07-31T13:25:17;24.00;99.90
64620;DHT22;51029;51.058;13.826;2023-07-31T13:27:42;23.70;99.90
64620;DHT22;51029;51.058;13.826;2023-07-31T13:30:08;23.80;99.90
64620;DHT22;51029;51.058;13.826;2023-07-31T13:32:34;23.70;99.90
64620;DHT22;51029;51.058;13.826;2023-07-31T13:35:05;23.60;99.90
64620;DHT22;51029;51.058;13.826;2023-07-31T13:37:30;23.60;99.90
64620;DHT22;51029;51.058;13.826;2023-07-31T13:39:56;23.50;99.90
64620;DHT22;51029;51.058;13.826;2023-07-31T13:42:21;23.50;99.90
64620;DHT22;51029;51.058;13.826;2023-07-31T13:44:47;23.60;99.90
64620;DHT22;51029;51.058;13.826;2023-07-31T13:47:13;23.80;99.90
64620;DHT22;51029;51.058;13.826;2023-07-31T13:49:38;24.10;99.90
64620;DHT22;51029;51.058;13.826;2023-07-31T13:52:04;24.60;99.90
64620;DHT22;51029;51.058;13.826;2023-07-31T13:54:30;25.10;99.90
64620;DHT22;51029;51.058;13.826;2023-07-31T13:56:55;25.40;99.90
64620;DHT22;51029;51.058;13.826;2023-07-31T13:59:21;25.40;99.90
64620;DHT22;51029;51.058;13.826;2023-07-31T14:01:47;25.20;99.90
64620;DHT22;51029;51.058;13.826;2023-07-31T14:04:13;25.00;99.90
64620;DHT22;51029;51.058;13.826;2023-07-31T14:06:39;24.90;99.90
64620;DHT22;51029;51.058;13.826;2023-07-31T14:09:05;24.80;99.90
64620;DHT22;51029;51.058;13.826;2023-07-31T14:11:33;25.10;99.90
64620;DHT22;51029;51.058;13.826;2023-07-31T14:13:59;25.10;99.90
64620;DHT22;51029;51.058;13.826;2023-07-31T14:16:26;25.10;99.90
64620;DHT22;51029;51.058;13.826;2023-07-31T14:18:52;24.80;99.90
64620;DHT22;51029;51.058;13.826;2023-07-31T14:21:19;24.70;99.90
64620;DHT22;51029;51.058;13.826;2023-07-31T14:23:45;24.50;99.90
64620;DHT22;51029;51.058;13.826;2023-07-31T14:26:10;24.30;99.90
64620;DHT22;51029;51.058;13.826;2023-07-31T14:28:36;24.20;99.90
64620;DHT22;51029;51.058;13.826;2023-07-31T14:31:01;24.00;99.90
64620;DHT22;51029;51.058;13.826;2023-07-31T14:33:27;24.10;99.90
64620;DHT22;51029;51.058;13.826;2023-07-31T14:35:52;24.50;99.90
64620;DHT22;51029;51.058;13.826;2023-07-31T14:38:18;25.50;99.90
64620;DHT22;51029;51.058;13.826;2023-07-31T14:40:44;26.90;99.90
64620;DHT22;51029;51.058;13.826;2023-07-31T14:43:09;26.60;99.90
64620;DHT22;51029;51.058;13.826;2023-07-31T14:45:35;25.80;99.90
64620;DHT22;51029;51.058;13.826;2023-07-31T14:48:00;25.10;99.90
64620;DHT22;51029;51.058;13.826;2023-07-31T14:50:26;24.60;99.90
64620;DHT22;51029;51.058;13.826;2023-07-31T14:52:51;24.20;99.90
64620;DHT22;51029;51.058;13.826;2023-07-31T14:55:18;24.20;99.90
64620;DHT22;51029;51.058;13.826;2023-07-31T14:57:43;24.70;99.90
64620;DHT22;51029;51.058;13.826;2023-07-31T15:00:09;24.60;99.90
64620;DHT22;51029;51.058;13.826;2023-07-31T15:02:38;24.40;99.90
64620;DHT22;51029;51.058;13.826;2023-07-31T15:05:04;24.60;99.90
64620;DHT22;51029;51.058;13.826;2023-07-31T15:07:30;24.80;99.90
64620;DHT22;51029;51.058;13.826;2023-07-31T15:09:56;25.10;99.90
64620;DHT22;51029;51.058;13.826;2023-07-31T15:12:21;25.70;99.90
64620;DHT22;51029;51.058;13.826;2023-07-31T15:14:49;25.40;99.90
64620;DHT22;51029;51.058;13.826;2023-07-31T15:17:15;24.80;99.90
64620;DHT22;51029;51.058;13.826;2023-07-31T15:19:40;24.30;99.90
64620;DHT22;51029;51.058;13.826;2023-07-31T15:22:06;24.00;99.90